Time;durP1;ratioP1;P1;durP2;ratioP2;P2;SDS_P1;SDS_P2;PMS_P1;PMS_P2;Temp;Humidity;BMP_temperature;BMP_pressure;BME280_temperature;BME280_humidity;BME280_pressure;Samples;Min_cycle;Max_cycle;Signal;HPM_P1;HPM_P2
2022/08/12 00:43:09;;;;;;;7.55;4.03;;;;;;;22.12;46.34;100174.25;5131849;28;20050;-61
2022/08/12 00:49:00;;;;;;;7.50;3.78;;;;;;;22.10;46.58;100178.75;5131721;28;20049;-61
2022/08/12 00:52:04;;;;;;;8.57;4.32;;;;;;;22.11;46.12;100173.41;5130824;28;20093;-62
2022/08/12 00:54:58;;;;;;;10.40;4.18;;;;;;;22.10;46.48;100173.47;5131867;27;20053;-62
2022/08/12 00:57:48;;;;;;;8.02;4.32;;;;;;;22.10;46.65;100176.09;5130615;27;20062;-61
2022/08/12 01:00:34;;;;;;;12.40;4.45;;;;;;;22.08;46.43;100180.56;5130758;28;20178;-61
2022/08/12 01:03:23;;;;;;;7.43;4.13;;;;;;;22.06;46.47;100175.31;5130629;28;20478;-62
2022/08/12 01:12:17;;;;;;;13.80;4.43;;;;;;;22.01;46.66;100182.50;5130860;27;20045;-61
2022/08/12 01:15:04;;;;;;;8.98;4.45;;;;;;;22.00;46.84;100175.50;5130362;28;20497;-63
2022/08/12 01:17:54;;;;;;;5.75;4.20;;;;;;;22.00;46.76;100180.78;5130415;28;20050;-64
2022/08/12 01:20:50;;;;;;;6.95;4.43;;;;;;;21.98;46.77;100174.69;5130371;28;20050;-63
2022/08/12 01:23:59;;;;;;;6.88;4.00;;;;;;;21.96;46.66;100174.72;5130176;28;20115;-63
2022/08/12 01:26:47;;;;;;;8.55;4.22;;;;;;;21.97;46.97;100179.09;5131022;28;20087;-61
2022/08/12 01:29:34;;;;;;;8.18;4.50;;;;;;;21.96;46.76;100177.34;5130305;27;20168;-62
2022/08/12 01:32:23;;;;;;;7.15;4.20;;;;;;;21.95;46.89;100183.56;5130672;28;20054;-62
2022/08/12 01:35:14;;;;;;;5.65;3.65;;;;;;;21.94;46.83;100181.84;5129864;28;20058;-62
2022/08/12 01:38:09;;;;;;;10.88;5.40;;;;;;;21.92;47.03;100183.66;5130042;28;20393;-63
2022/08/12 01:40:59;;;;;;;7.00;3.95;;;;;;;21.92;47.29;100178.38;5130883;27;20050;-63
2022/08/12 01:43:44;;;;;;;8.43;4.78;;;;;;;21.91;47.00;100181.91;5125006;28;20177;-63
2022/08/12 01:46:42;;;;;;;7.57;4.70;;;;;;;21.89;46.93;100173.19;5116096;28;20047;-63
2022/08/12 01:50:04;;;;;;;9.45;4.72;;;;;;;21.87;46.90;100183.78;5116006;28;20124;-63
2022/08/12 01:52:53;;;;;;;6.68;3.88;;;;;;;21.84;46.88;100168.03;5116614;28;20097;-63
2022/08/12 01:55:44;;;;;;;11.13;4.95;;;;;;;21.83;46.93;100174.22;5116666;28;20161;-63
2022/08/12 01:59:45;;;;;;;5.95;4.53;;;;;;;21.83;47.00;100173.34;5115759;28;20043;-63
2022/08/12 02:01:44;;;;;;;8.45;4.40;;;;;;;21.81;47.15;100176.03;5116440;28;20046;-62
2022/08/12 02:11:27;;;;;;;13.13;4.88;;;;;;;21.75;47.12;100158.63;5116407;28;20565;-63
2022/08/12 02:14:30;;;;;;;5.78;4.60;;;;;;;21.73;47.15;100157.78;5116687;28;20081;-61
2022/08/12 02:17:32;;;;;;;6.63;4.15;;;;;;;21.73;47.13;100155.16;5115602;28;20050;-62
2022/08/12 02:20:25;;;;;;;6.45;4.65;;;;;;;21.72;47.13;100150.78;5115277;28;20073;-62
2022/08/12 02:23:13;;;;;;;5.82;3.95;;;;;;;21.71;47.09;100162.25;5115446;28;20560;-61
2022/08/12 02:26:06;;;;;;;7.57;4.75;;;;;;;21.70;47.00;100162.28;5116145;28;20085;-62
2022/08/12 02:28:53;;;;;;;8.13;4.77;;;;;;;21.67;47.33;100160.59;5116362;28;20109;-62
2022/08/12 02:31:44;;;;;;;8.13;4.50;;;;;;;21.66;47.25;100158.00;5115882;28;20644;-62
2022/08/12 02:34:32;;;;;;;8.73;4.55;;;;;;;21.66;47.31;100155.38;5116310;28;20505;-61
2022/08/12 02:37:19;;;;;;;5.03;4.35;;;;;;;21.64;47.28;100160.69;5115976;28;20173;-63
2022/08/12 02:40:05;;;;;;;7.68;4.60;;;;;;;21.63;47.24;100153.69;5114860;28;20098;-61
2022/08/12 02:43:11;;;;;;;8.02;4.22;;;;;;;21.60;47.21;100148.50;5115064;28;20138;-62
2022/08/12 02:46:02;;;;;;;6.85;4.43;;;;;;;21.60;47.42;100152.00;5114936;28;20058;-61
2022/08/12 02:48:57;;;;;;;7.38;4.00;;;;;;;21.57;47.43;100157.31;5115159;28;20555;-63
2022/08/12 02:51:46;;;;;;;;;;;;;;;21.53;47.20;100150.41;5115223;28;20616;-63
2022/08/12 02:54:30;;;;;;;8.00;4.20;;;;;;;21.52;47.44;100160.97;5114946;28;19923;-63
2022/08/12 02:57:21;;;;;;;5.93;4.35;;;;;;;21.50;47.57;100157.53;5114806;28;20092;-62
2022/08/12 03:00:08;;;;;;;5.82;4.85;;;;;;;21.49;47.67;100156.66;5115787;28;20096;-62
2022/08/12 03:02:59;;;;;;;9.02;4.72;;;;;;;21.48;47.38;100152.31;5115486;28;20054;-63
2022/08/12 03:05:53;;;;;;;8.10;4.50;;;;;;;21.48;47.32;100149.66;5114517;28;20050;-63
2022/08/12 03:08:41;;;;;;;8.70;4.57;;;;;;;21.48;47.55;100146.19;5114604;28;20448;-63
2022/08/12 03:11:37;;;;;;;8.43;4.40;;;;;;;21.49;47.36;100153.19;5115316;28;20288;-61
2022/08/12 03:14:28;;;;;;;8.73;4.38;;;;;;;21.48;47.52;100154.94;5114595;28;20093;-61
2022/08/12 03:17:26;;;;;;;9.45;4.05;;;;;;;21.45;47.48;100144.47;5115132;28;20502;-62
2022/08/12 03:20:17;;;;;;;5.53;3.88;;;;;;;21.45;47.33;100141.84;5115101;28;20096;-63
2022/08/12 03:23:05;;;;;;;9.45;5.25;;;;;;;21.45;47.26;100137.44;5114217;28;20467;-63
2022/08/12 03:25:57;;;;;;;4.80;4.18;;;;;;;21.43;47.56;100136.63;5114658;28;20116;-62
2022/08/12 03:28:50;;;;;;;7.85;4.53;;;;;;;21.42;47.56;100137.53;5114206;28;20046;-62
2022/08/12 03:31:37;;;;;;;7.35;4.78;;;;;;;21.42;47.39;100134.88;5114594;28;20054;-61
2022/08/12 03:34:28;;;;;;;8.98;4.43;;;;;;;21.41;47.42;100142.84;5114632;28;20046;-62
2022/08/12 03:37:24;;;;;;;7.25;4.07;;;;;;;21.42;47.40;100136.66;5114007;28;20509;-61
2022/08/12 03:41:32;;;;;;;8.55;4.60;;;;;;;21.42;47.46;100147.19;5113919;28;20096;-63
2022/08/12 04:02:06;;;;;;;6.70;4.38;;;;;;;21.36;47.42;100147.38;5114629;28;20050;-61
2022/08/12 04:04:53;;;;;;;9.35;4.40;;;;;;;21.35;47.46;100145.66;5113533;28;20122;-62
2022/08/12 04:07:46;;;;;;;6.78;4.38;;;;;;;21.34;47.27;100152.66;5113831;28;20186;-61
2022/08/12 04:13:47;;;;;;;7.93;4.57;;;;;;;21.33;47.26;100148.34;5097023;28;20038;-62
2022/08/12 04:16:35;;;;;;;7.00;5.13;;;;;;;21.32;47.64;100156.25;5114067;28;20555;-62
2022/08/12 04:19:19;;;;;;;7.38;4.00;;;;;;;21.31;47.41;100152.78;5113337;28;20078;-62
2022/08/12 04:22:05;;;;;;;12.80;4.78;;;;;;;21.29;47.43;100158.06;5113353;28;20105;-63
2022/08/12 04:24:52;;;;;;;10.18;4.95;;;;;;;21.30;47.44;100158.94;5114173;28;20047;-62
2022/08/12 04:27:36;;;;;;;13.30;5.43;;;;;;;21.29;47.38;100158.06;5114124;28;20058;-61
2022/08/12 04:30:25;;;;;;;11.15;4.65;;;;;;;21.28;47.29;100152.84;5114190;28;20046;-62
2022/08/12 04:33:14;;;;;;;11.05;5.10;;;;;;;21.28;47.38;100158.97;5112598;28;20113;-63
2022/08/12 04:36:04;;;;;;;7.88;5.03;;;;;;;21.27;47.47;100153.75;5114229;28;20042;-63
2022/08/12 04:39:00;;;;;;;6.68;4.18;;;;;;;21.27;47.42;100154.59;5113063;28;20069;-62
2022/08/12 04:41:54;;;;;;;10.88;4.50;;;;;;;21.25;47.26;100145.91;5113771;28;20541;-62
2022/08/12 04:44:41;;;;;;;5.68;4.22;;;;;;;21.23;47.29;100142.44;5113179;28;20073;-61
2022/08/12 04:47:30;;;;;;;8.30;4.30;;;;;;;21.23;47.38;100145.06;5113643;28;20074;-63
2022/08/12 04:50:23;;;;;;;11.00;4.47;;;;;;;21.23;47.40;100147.72;5113074;28;20050;-61
2022/08/12 04:53:11;;;;;;;7.28;4.10;;;;;;;21.24;47.52;100141.53;5113714;28;20130;-61
2022/08/12 04:55:56;;;;;;;12.82;4.68;;;;;;;21.24;47.43;100145.94;5112815;28;20395;-61
2022/08/12 04:58:40;;;;;;;11.57;4.40;;;;;;;21.23;47.51;100145.06;5112611;28;20039;-63
2022/08/12 05:01:31;;;;;;;14.57;5.30;;;;;;;21.25;47.54;100145.03;5113691;28;20096;-63
2022/08/12 05:04:17;;;;;;;13.13;4.88;;;;;;;21.24;47.39;100136.25;5113189;28;20108;-63
2022/08/12 05:07:03;;;;;;;9.40;4.35;;;;;;;21.25;47.53;100139.75;5113530;28;20046;-62
2022/08/12 05:09:50;;;;;;;9.65;4.47;;;;;;;21.23;47.50;100129.25;5113825;28;20070;-62
2022/08/12 05:12:45;;;;;;;5.15;3.72;;;;;;;21.24;47.48;100136.25;5113549;28;20047;-62
2022/08/12 05:15:33;;;;;;;;;;;;;;;21.23;47.37;100131.91;5113797;28;20058;-61
2022/08/12 05:18:20;;;;;;;9.40;4.47;;;;;;;21.24;47.48;100138.91;5112910;28;19980;-61
2022/08/12 05:21:10;;;;;;;9.60;4.05;;;;;;;21.26;47.54;100137.06;5116734;28;20050;-63
2022/08/12 05:23:57;;;;;;;9.60;4.20;;;;;;;21.26;47.35;100139.69;5116428;28;20056;-62
2022/08/12 05:26:43;;;;;;;8.10;3.83;;;;;;;21.26;47.54;100142.34;5116446;28;20050;-62
2022/08/12 05:29:33;;;;;;;11.15;3.80;;;;;;;21.27;47.57;100148.47;5117123;28;20053;-63
2022/08/12 05:32:19;;;;;;;13.02;4.40;;;;;;;21.26;47.40;100138.84;5116867;28;20055;-63
2022/08/12 05:35:07;;;;;;;10.63;3.90;;;;;;;21.25;47.52;100140.63;5116395;28;20050;-63
2022/08/12 05:41:02;;;;;;;12.85;4.28;;;;;;;21.28;47.42;100137.03;5116945;28;20058;-61
2022/08/12 05:43:56;;;;;;;8.63;4.13;;;;;;;21.30;47.42;100148.41;5115796;28;20070;-62
2022/08/12 05:46:40;;;;;;;7.40;3.70;;;;;;;21.34;47.37;100157.94;5116682;28;20047;-62
2022/08/12 05:49:32;;;;;;;6.75;3.88;;;;;;;21.37;47.29;100159.66;5116117;28;20506;-61
2022/08/12 05:52:16;;;;;;;7.90;3.83;;;;;;;21.39;47.44;100165.75;5115997;28;20046;-61
2022/08/12 05:55:03;;;;;;;10.70;3.58;;;;;;;21.41;47.37;100174.47;5117050;28;20452;-62
2022/08/12 05:57:57;;;;;;;10.65;3.80;;;;;;;21.41;47.36;100166.56;5116941;28;20046;-62
2022/08/12 06:00:41;;;;;;;6.33;3.73;;;;;;;21.42;47.20;100171.78;5115712;28;20102;-63
2022/08/12 06:03:27;;;;;;;8.88;3.45;;;;;;;21.43;47.32;100175.28;5116634;28;20559;-62
2022/08/12 06:06:18;;;;;;;10.52;4.18;;;;;;;21.46;47.07;100180.47;5116746;28;20051;-63
2022/08/12 06:09:04;;;;;;;5.45;3.92;;;;;;;21.48;47.40;100175.19;5116576;28;20043;-61
2022/08/12 06:11:51;;;;;;;7.90;4.00;;;;;;;21.48;47.21;100159.38;5116361;28;20050;-62
2022/08/12 06:14:40;;;;;;;11.18;3.60;;;;;;;21.49;47.16;100155.81;5115746;28;20077;-62
2022/08/12 06:17:29;;;;;;;9.52;4.30;;;;;;;21.53;47.16;100155.69;5115651;28;20105;-62
2022/08/12 06:20:15;;;;;;;17.92;4.32;;;;;;;21.54;47.32;100159.19;5115718;28;20050;-62
2022/08/12 06:23:03;;;;;;;6.70;4.25;;;;;;;21.55;47.28;100156.50;5115461;28;20076;-63
2022/08/12 06:25:55;;;;;;;8.48;3.90;;;;;;;21.57;47.39;100164.38;5115481;28;20161;-61
2022/08/12 06:28:39;;;;;;;8.35;4.50;;;;;;;21.57;47.27;100157.31;5115267;28;20422;-62
2022/08/12 06:31:26;;;;;;;6.38;3.55;;;;;;;21.59;47.28;100158.13;5114560;28;20049;-62
2022/08/12 06:34:13;;;;;;;12.02;4.13;;;;;;;21.62;47.18;100161.63;5115023;28;20066;-61
2022/08/12 06:37:03;;;;;;;7.57;3.88;;;;;;;21.62;47.19;100154.59;5115753;28;20082;-61
2022/08/12 06:39:47;;;;;;;11.98;3.33;;;;;;;21.63;47.05;100152.81;5115946;28;20071;-61
2022/08/12 06:43:05;;;;;;;11.77;4.15;;;;;;;21.65;46.99;100153.63;5115926;28;20422;-61
2022/08/12 06:45:46;;;;;;;7.70;3.88;;;;;;;21.64;47.11;100142.25;5116049;28;20054;-63
2022/08/12 06:48:30;;;;;;;7.90;3.42;;;;;;;21.65;46.98;100159.75;5114954;28;20058;-61
2022/08/12 06:51:16;;;;;;;9.18;4.00;;;;;;;21.68;47.17;100145.66;5114960;28;20046;-61
2022/08/12 06:54:01;;;;;;;9.45;3.92;;;;;;;21.70;47.13;100152.59;5114984;28;20127;-62
2022/08/12 06:56:45;;;;;;;;;;;;;;;21.69;46.91;100150.00;5115171;28;20131;-62
2022/08/12 06:59:30;;;;;;;5.43;3.40;;;;;;;21.69;46.94;100142.09;5115680;28;20377;-62
2022/08/12 07:02:14;;;;;;;6.38;3.08;;;;;;;21.71;47.01;100150.84;5114841;28;20050;-62
2022/08/12 07:04:58;;;;;;;6.38;3.60;;;;;;;21.72;47.09;100145.50;5115643;28;20074;-62
2022/08/12 07:07:45;;;;;;;12.30;3.25;;;;;;;21.74;47.16;100148.97;5115476;28;20070;-62
2022/08/12 07:10:33;;;;;;;12.38;3.55;;;;;;;21.75;46.90;100150.69;5114584;28;20093;-64
2022/08/12 07:13:17;;;;;;;5.80;2.97;;;;;;;21.77;46.93;100153.28;5114159;28;20548;-63
2022/08/12 07:16:01;;;;;;;9.23;3.00;;;;;;;21.79;46.90;100151.47;5115524;28;20108;-62
2022/08/12 07:18:52;;;;;;;7.93;3.47;;;;;;;21.79;46.66;100148.84;5114939;28;20062;-62
2022/08/12 07:21:39;;;;;;;5.18;2.42;;;;;;;21.80;46.72;100155.84;5115383;28;20047;-62
2022/08/12 07:24:26;;;;;;;8.38;2.92;;;;;;;21.82;46.62;100155.78;5115114;28;20097;-62
2022/08/12 07:27:12;;;;;;;6.32;2.83;;;;;;;21.84;46.55;100156.59;5114218;28;20078;-62
2022/08/12 07:29:59;;;;;;;7.85;3.00;;;;;;;21.84;46.58;100154.84;5113964;28;20082;-62
2022/08/12 07:32:50;;;;;;;8.40;3.08;;;;;;;21.88;46.91;100153.81;5114721;28;20120;-62
2022/08/12 07:35:42;;;;;;;8.35;3.75;;;;;;;21.91;46.83;100155.53;5114110;28;20059;-62
2022/08/12 07:38:35;;;;;;;5.15;3.10;;;;;;;21.92;46.67;100153.75;5114686;28;20054;-63
2022/08/12 07:41:25;;;;;;;6.88;3.20;;;;;;;21.92;46.78;100156.38;5114134;28;20518;-63
2022/08/12 07:44:09;;;;;;;4.15;3.10;;;;;;;21.94;46.51;100149.28;5113907;28;20062;-62
2022/08/12 07:46:52;;;;;;;4.45;3.10;;;;;;;21.94;46.67;100147.53;5114893;28;20081;-62
2022/08/12 07:49:37;;;;;;;8.65;3.72;;;;;;;21.97;46.58;100151.84;5114411;28;20133;-62
2022/08/12 07:52:20;;;;;;;5.85;2.90;;;;;;;21.98;46.49;100149.16;5114457;28;20043;-62
2022/08/12 07:55:05;;;;;;;;;;;;;;;21.99;46.29;100155.31;5114876;28;20086;-62
2022/08/12 07:57:54;;;;;;;6.35;3.30;;;;;;;22.00;46.53;100154.41;5114293;28;20291;-62
2022/08/12 08:00:41;;;;;;;7.55;3.58;;;;;;;22.03;46.43;100149.03;5113526;28;20046;-63
2022/08/12 08:03:30;;;;;;;4.85;3.00;;;;;;;22.04;46.46;100145.47;5113631;28;20164;-63
2022/08/12 08:06:21;;;;;;;8.50;3.60;;;;;;;22.07;46.46;100155.09;5113580;28;20448;-64
2022/08/12 08:09:08;;;;;;;11.55;3.35;;;;;;;22.08;46.46;100152.38;5114464;28;20528;-62
2022/08/12 08:14:58;;;;;;;9.13;3.42;;;;;;;22.10;46.41;100145.28;5114360;28;20469;-64
2022/08/12 08:18:01;;;;;;;6.22;2.72;;;;;;;22.13;46.24;100149.59;5114067;28;20051;-64
2022/08/12 08:20:49;;;;;;;10.63;3.13;;;;;;;22.13;46.62;100139.91;5113422;28;20181;-63
2022/08/12 08:26:55;;;;;;;9.82;2.65;;;;;;;22.17;46.36;100140.69;5114334;28;20050;-63
2022/08/12 08:29:47;;;;;;;7.53;3.50;;;;;;;22.19;46.37;100149.44;5113170;28;20578;-63
2022/08/12 08:32:31;;;;;;;6.78;3.35;;;;;;;22.20;46.30;100146.72;5113776;28;20403;-63
2022/08/12 08:35:24;;;;;;;5.78;2.45;;;;;;;22.23;46.27;100150.19;5114003;28;20047;-63
2022/08/12 08:38:13;;;;;;;10.82;3.25;;;;;;;22.24;46.30;100155.44;5113970;28;20055;-62
2022/08/12 08:44:12;;;;;;;;;;;;;;;22.25;46.28;100145.72;5114436;28;20399;-62
2022/08/12 08:47:04;;;;;;;10.27;3.22;;;;;;;22.26;46.19;100152.75;5114185;28;20385;-62
2022/08/12 08:49:51;;;;;;;6.10;2.80;;;;;;;22.30;46.12;100157.03;5114318;28;20105;-62
2022/08/12 08:52:38;;;;;;;8.10;3.13;;;;;;;22.32;46.03;100153.41;5113784;28;20089;-65
2022/08/12 08:55:26;;;;;;;7.13;2.50;;;;;;;22.34;45.80;100156.03;5116746;28;20459;-64
2022/08/12 08:58:19;;;;;;;4.80;2.90;;;;;;;22.34;45.65;100142.81;5118380;28;20054;-62
2022/08/12 09:01:04;;;;;;;8.00;2.90;;;;;;;22.37;45.53;100153.25;5117855;28;20122;-63
2022/08/12 09:03:49;;;;;;;5.65;2.97;;;;;;;22.38;45.68;100151.50;5118018;28;20050;-63
2022/08/12 09:06:38;;;;;;;5.43;2.60;;;;;;;22.40;45.62;100152.31;5118483;28;20043;-63
2022/08/12 09:09:30;;;;;;;4.40;2.67;;;;;;;22.41;45.60;100146.97;5116643;28;20069;-62
2022/08/12 09:15:30;;;;;;;6.60;2.78;;;;;;;22.45;45.54;100139.84;5117388;28;20073;-64
2022/08/12 09:18:15;;;;;;;;;;;;;;;22.44;45.58;100133.72;5117194;28;20058;-64
2022/08/12 09:21:01;;;;;;;11.68;3.38;;;;;;;22.46;45.41;100144.22;5116741;28;20004;-64
2022/08/12 09:23:48;;;;;;;6.90;2.90;;;;;;;22.49;45.49;100136.22;5116694;28;20444;-64
2022/08/12 09:26:34;;;;;;;13.93;3.30;;;;;;;22.52;45.39;100133.47;5117292;28;20055;-64
2022/08/12 09:29:23;;;;;;;9.30;2.97;;;;;;;22.53;45.12;100135.19;5117231;28;20162;-63
2022/08/12 09:32:14;;;;;;;6.30;2.72;;;;;;;22.56;45.06;100142.16;5116674;28;20051;-62
2022/08/12 09:35:02;;;;;;;6.63;2.90;;;;;;;22.57;44.94;100138.59;5116451;28;20042;-64
2022/08/12 09:37:47;;;;;;;6.00;2.55;;;;;;;22.58;44.99;100135.03;5116318;28;20092;-64
2022/08/12 09:40:31;;;;;;;4.03;2.78;;;;;;;22.57;44.94;100125.41;5116948;28;20076;-63
2022/08/12 09:46:25;;;;;;;6.30;3.00;;;;;;;22.59;44.86;100120.94;5116818;28;20169;-63
2022/08/12 09:49:09;;;;;;;9.00;2.97;;;;;;;22.60;44.77;100107.66;5117079;28;20084;-62
2022/08/12 09:51:59;;;;;;;11.82;2.97;;;;;;;22.63;44.93;100112.84;5117009;28;20051;-62
2022/08/12 09:54:48;;;;;;;6.43;2.75;;;;;;;22.65;44.84;100105.75;5116878;28;20146;-63
2022/08/12 09:57:38;;;;;;;11.52;3.15;;;;;;;22.67;44.53;100100.41;5115895;28;20059;-64
2022/08/12 10:00:24;;;;;;;9.05;3.05;;;;;;;22.69;44.73;100100.38;5116009;28;20100;-63
2022/08/12 10:03:09;;;;;;;4.93;2.88;;;;;;;22.70;44.54;100091.53;5115703;28;20050;-64
2022/08/12 10:05:55;;;;;;;5.25;2.58;;;;;;;22.72;44.31;100092.34;5115396;28;20059;-63
2022/08/12 10:08:43;;;;;;;7.35;2.28;;;;;;;22.72;44.12;100084.41;5115823;28;20092;-63
2022/08/12 10:14:29;;;;;;;6.47;2.45;;;;;;;22.74;43.96;100090.50;5116366;28;20050;-63
2022/08/12 10:17:21;;;;;;;5.22;2.30;;;;;;;22.73;44.24;100087.00;5116410;28;20042;-64
2022/08/12 10:20:08;;;;;;;3.85;2.40;;;;;;;22.73;44.13;100084.34;5115618;28;20438;-63
2022/08/12 10:23:04;;;;;;;4.18;2.30;;;;;;;22.74;44.19;100079.91;5116353;28;20506;-64
2022/08/12 10:31:54;;;;;;;3.42;2.33;;;;;;;22.76;43.89;100075.44;5115868;28;20073;-63
2022/08/12 10:34:43;;;;;;;4.03;2.35;;;;;;;22.78;43.93;100074.50;5115644;28;20054;-63
2022/08/12 10:37:27;;;;;;;3.65;2.67;;;;;;;22.78;43.76;100073.63;5116032;28;20088;-62
2022/08/12 10:40:21;;;;;;;3.22;2.08;;;;;;;22.85;43.75;100069.00;5116237;28;20536;-63
2022/08/12 10:46:17;;;;;;;11.18;2.85;;;;;;;22.90;43.41;100057.34;5115940;28;20579;-64
2022/08/12 10:49:02;;;;;;;7.50;2.55;;;;;;;22.94;43.32;100060.75;5115036;28;20147;-64
2022/08/12 10:51:50;;;;;;;4.97;2.33;;;;;;;22.95;43.22;100044.00;5115699;28;20050;-64
2022/08/12 10:54:35;;;;;;;4.38;2.10;;;;;;;22.96;43.15;100049.22;5114910;28;20074;-63
2022/08/12 10:57:20;;;;;;;11.35;2.47;;;;;;;22.98;43.36;100046.50;5115379;28;20096;-63
2022/08/12 11:00:05;;;;;;;7.55;2.40;;;;;;;22.98;43.23;100037.72;5115565;28;20120;-63
2022/08/12 11:02:53;;;;;;;11.63;2.83;;;;;;;22.99;42.95;100039.47;5115692;28;20533;-62
2022/08/12 11:05:37;;;;;;;4.35;2.17;;;;;;;22.97;43.01;100039.50;5114641;28;20134;-62
2022/08/12 11:08:26;;;;;;;4.75;2.10;;;;;;;22.95;43.06;100031.63;5115247;28;20100;-67
2022/08/12 11:11:16;;;;;;;3.60;2.42;;;;;;;22.95;42.99;100017.56;5114404;28;20046;-65
2022/08/12 11:14:03;;;;;;;9.43;2.85;;;;;;;23.00;42.78;100020.88;5114378;28;20096;-66
2022/08/12 11:16:56;;;;;;;11.18;3.38;;;;;;;23.02;42.65;100011.13;5113745;28;20051;-64
2022/08/12 11:19:41;;;;;;;8.80;2.42;;;;;;;23.02;42.45;100019.06;5114310;28;20066;-63
2022/08/12 11:22:25;;;;;;;4.43;2.00;;;;;;;23.02;42.45;100015.56;5114115;28;20050;-64
2022/08/12 11:25:09;;;;;;;4.35;2.25;;;;;;;23.04;42.26;100011.94;5113998;28;20525;-63
2022/08/12 11:27:56;;;;;;;5.78;2.45;;;;;;;23.06;42.41;100006.59;5114886;28;20112;-63
2022/08/12 11:30:41;;;;;;;3.50;2.65;;;;;;;23.05;42.22;100015.44;5114923;28;20041;-63
2022/08/12 11:33:28;;;;;;;3.67;2.08;;;;;;;23.04;42.26;100008.44;5114556;28;20074;-64
2022/08/12 11:36:15;;;;;;;3.53;2.08;;;;;;;23.03;42.28;100015.50;5115118;28;20067;-64
2022/08/12 11:38:59;;;;;;;6.90;2.00;;;;;;;23.02;42.27;100005.84;5113952;28;20414;-64
2022/08/12 11:41:46;;;;;;;3.88;2.10;;;;;;;23.02;42.28;100007.66;5114885;28;20047;-63
2022/08/12 11:44:36;;;;;;;10.80;2.95;;;;;;;23.04;41.99;100000.53;5113959;28;20051;-63
2022/08/12 11:47:23;;;;;;;6.35;2.25;;;;;;;23.05;41.99;100000.47;5113832;28;20571;-64
2022/08/12 11:50:10;;;;;;;3.03;1.95;;;;;;;23.06;42.21;100007.47;5114696;28;20452;-65
2022/08/12 11:52:57;;;;;;;5.78;2.13;;;;;;;23.09;41.73;100001.19;5114283;28;20066;-64
2022/08/12 11:55:41;;;;;;;4.38;2.10;;;;;;;23.08;42.01;100004.75;5114743;28;20047;-65
2022/08/12 11:58:27;;;;;;;6.15;2.00;;;;;;;23.07;42.08;100000.38;5114356;28;20537;-63
2022/08/12 12:01:11;;;;;;;6.97;2.05;;;;;;;23.08;41.80;99997.72;5113583;28;20130;-64
2022/08/12 12:03:55;;;;;;;2.35;1.88;;;;;;;23.08;41.72;100003.00;5114432;28;20510;-67
2022/08/12 12:06:39;;;;;;;8.63;2.08;;;;;;;23.08;41.70;99995.06;5114665;28;20201;-64
2022/08/12 12:09:24;;;;;;;10.10;3.10;;;;;;;23.10;41.54;99984.41;5114517;28;20054;-64
2022/08/12 12:12:10;;;;;;;6.53;2.22;;;;;;;23.16;41.63;99986.84;5114433;28;20046;-64
2022/08/12 12:14:55;;;;;;;6.78;2.50;;;;;;;23.21;41.60;99986.72;5113078;28;20070;-63
2022/08/12 12:17:41;;;;;;;7.78;2.78;;;;;;;23.23;41.53;99991.00;5114315;28;20046;-63
2022/08/12 12:20:25;;;;;;;5.47;2.58;;;;;;;23.23;41.52;99990.16;5113538;28;20409;-65
2022/08/12 12:23:08;;;;;;;6.05;2.08;;;;;;;23.23;41.41;99979.59;5114379;28;20050;-63
2022/08/12 12:25:52;;;;;;;5.78;1.90;;;;;;;23.23;41.41;99995.44;5114382;28;20096;-64
2022/08/12 12:28:37;;;;;;;7.50;2.47;;;;;;;23.24;41.50;99986.59;5113111;28;20066;-65
2022/08/12 12:31:23;;;;;;;4.28;2.60;;;;;;;23.25;41.54;99983.03;5113114;28;20070;-64
2022/08/12 12:34:07;;;;;;;4.63;2.05;;;;;;;23.26;41.55;99979.47;5112987;28;20496;-64
2022/08/12 12:36:51;;;;;;;6.68;2.63;;;;;;;23.28;41.52;99977.59;5113328;28;20167;-62
2022/08/12 12:39:35;;;;;;;3.45;2.05;;;;;;;23.27;41.38;99974.13;5113928;28;20046;-64
2022/08/12 12:42:18;;;;;;;5.35;1.92;;;;;;;23.29;41.05;99968.75;5114207;28;20050;-63
2022/08/12 12:45:03;;;;;;;12.27;2.63;;;;;;;23.33;41.00;99970.38;5113724;28;20131;-63
2022/08/12 12:47:53;;;;;;;13.35;2.72;;;;;;;23.36;41.23;99969.38;5112839;28;20050;-64
2022/08/12 12:50:39;;;;;;;6.10;2.20;;;;;;;23.40;40.90;99968.34;5113892;28;20117;-64
2022/08/12 12:53:23;;;;;;;10.43;2.53;;;;;;;23.38;40.83;99971.06;5113737;28;20528;-63
2022/08/12 12:56:22;;;;;;;4.70;2.17;;;;;;;23.37;41.06;99974.63;5114021;28;20120;-62
2022/08/12 12:59:07;;;;;;;6.72;2.08;;;;;;;23.39;40.65;99969.28;5112891;28;20050;-63
2022/08/12 13:01:52;;;;;;;6.03;2.13;;;;;;;23.37;40.79;99961.41;5112627;28;20042;-63
2022/08/12 13:04:36;;;;;;;3.25;1.80;;;;;;;23.39;40.81;99959.56;5113968;28;20073;-64
2022/08/12 13:07:20;;;;;;;5.70;2.47;;;;;;;23.38;40.80;99965.78;5113114;28;20046;-64
2022/08/12 13:10:05;;;;;;;4.22;2.30;;;;;;;23.38;40.79;99960.50;5113737;28;20069;-64
2022/08/12 13:12:49;;;;;;;10.77;2.15;;;;;;;23.38;40.77;99962.25;5113487;28;20043;-63
2022/08/12 13:15:33;;;;;;;;;;;;;;;23.38;40.96;99955.19;5113642;28;20047;-63
2022/08/12 13:18:18;;;;;;;6.80;2.10;;;;;;;23.40;40.82;99955.13;5113566;28;19969;-64
2022/08/12 13:21:04;;;;;;;;;;;;;;;23.43;40.84;99949.72;5113973;28;20127;-63
2022/08/12 13:23:49;;;;;;;8.50;1.80;;;;;;;23.44;40.40;99947.94;5112800;28;20029;-63
2022/08/12 13:26:33;;;;;;;8.30;2.45;;;;;;;23.48;40.13;99946.91;5112786;28;20100;-62
2022/08/12 13:29:20;;;;;;;9.48;2.10;;;;;;;23.50;40.20;99953.00;5113655;28;20054;-62
2022/08/12 13:32:04;;;;;;;6.20;1.98;;;;;;;23.47;40.14;99950.47;5113219;28;20058;-64
2022/08/12 13:34:52;;;;;;;6.93;2.50;;;;;;;23.46;40.03;99944.31;5113536;28;20173;-62
2022/08/12 13:37:38;;;;;;;5.45;2.17;;;;;;;23.49;40.10;99952.16;5112564;28;20043;-64
2022/08/12 13:40:23;;;;;;;8.18;2.45;;;;;;;23.50;39.93;99950.34;5114652;28;20043;-64
2022/08/12 13:43:16;;;;;;;2.53;1.63;;;;;;;23.49;39.68;99944.22;5116319;28;20055;-64
2022/08/12 13:46:03;;;;;;;3.75;2.17;;;;;;;23.54;39.45;99949.31;5117185;28;20563;-62
2022/08/12 13:48:47;;;;;;;2.90;1.65;;;;;;;23.56;39.20;99956.25;5116785;28;20050;-64
2022/08/12 13:51:31;;;;;;;;;;;;;;;23.57;40.18;99942.13;5117361;28;20132;-62
2022/08/12 13:54:19;;;;;;;8.55;2.55;;;;;;;23.56;39.37;99939.53;5115759;28;20400;-64
2022/08/12 13:57:03;;;;;;;8.60;2.20;;;;;;;23.57;39.11;99934.19;5115745;28;20096;-63
2022/08/12 13:59:47;;;;;;;5.90;1.88;;;;;;;23.54;39.31;99936.09;5116652;28;20095;-62
2022/08/12 14:02:33;;;;;;;2.97;1.90;;;;;;;23.55;39.13;99932.53;5116522;28;20039;-62
2022/08/12 14:05:18;;;;;;;7.13;1.80;;;;;;;23.54;39.14;99933.44;5116544;28;20096;-63
2022/08/12 14:08:05;;;;;;;7.25;2.15;;;;;;;23.55;39.08;99924.59;5115690;28;20453;-62
2022/08/12 14:10:54;;;;;;;8.00;1.90;;;;;;;23.58;39.08;99932.41;5116464;28;20127;-64
2022/08/12 14:13:40;;;;;;;4.22;2.15;;;;;;;23.58;39.01;99927.13;5116392;28;20542;-63
2022/08/12 14:16:24;;;;;;;4.60;1.98;;;;;;;23.57;39.04;99920.97;5115509;28;20047;-65
2022/08/12 14:19:08;;;;;;;3.88;2.15;;;;;;;23.56;39.05;99919.22;5115631;28;20089;-64
2022/08/12 14:21:53;;;;;;;3.17;1.90;;;;;;;23.57;39.10;99915.66;5116269;28;20126;-65
2022/08/12 14:24:37;;;;;;;2.53;1.90;;;;;;;23.64;38.84;99899.56;5115329;28;20456;-65
2022/08/12 14:27:27;;;;;;;6.75;2.20;;;;;;;23.66;39.02;99918.88;5115079;28;20185;-62
2022/08/12 14:30:14;;;;;;;8.18;2.90;;;;;;;23.66;39.14;99916.22;5115365;28;20050;-62
2022/08/12 14:33:01;;;;;;;6.30;2.15;;;;;;;23.64;39.07;99905.69;5114803;28;20054;-62
2022/08/12 14:35:45;;;;;;;5.90;1.95;;;;;;;23.63;38.83;99909.25;5115296;28;20082;-64
2022/08/12 14:38:32;;;;;;;4.55;2.00;;;;;;;23.65;39.15;99911.88;5116213;28;20050;-62
2022/08/12 14:41:19;;;;;;;3.55;1.80;;;;;;;23.64;38.92;99913.63;5115764;28;20493;-63
2022/08/12 14:44:03;;;;;;;5.60;2.13;;;;;;;23.65;38.89;99906.56;5115165;28;20076;-63
2022/08/12 14:46:54;;;;;;;3.72;1.88;;;;;;;23.63;38.87;99911.06;5115069;28;20120;-64
2022/08/12 14:49:38;;;;;;;7.20;2.00;;;;;;;23.63;38.94;99911.06;5115609;28;20054;-64
2022/08/12 14:52:23;;;;;;;6.38;2.15;;;;;;;23.65;38.57;99911.88;5115554;28;20042;-64
2022/08/12 14:55:10;;;;;;;5.72;2.35;;;;;;;23.65;38.77;99911.88;5114791;28;20058;-64